createdAt,value
2022-07-26T00:02:48.756Z,100184.63
2022-07-26T00:05:50.335Z,100179.97
2022-07-26T00:08:52.274Z,100176.41
2022-07-26T00:11:53.885Z,100185.22
2022-07-26T00:14:55.315Z,100186.22
2022-07-26T00:17:56.872Z,100190.47
2022-07-26T00:20:58.525Z,100194.31
2022-07-26T00:24:00.136Z,100195.59
2022-07-26T00:27:01.559Z,100203.25
2022-07-26T00:30:06.722Z,100204.50
2022-07-26T00:33:08.176Z,100208.59
2022-07-26T00:36:10.001Z,100210.34
2022-07-26T00:39:11.738Z,100212.63
2022-07-26T00:42:14.042Z,100212.69
2022-07-26T00:45:16.467Z,100219.63
2022-07-26T00:48:18.855Z,100221.69
2022-07-26T00:51:20.922Z,100228.13
2022-07-26T00:54:22.494Z,100235.91
2022-07-26T00:57:24.074Z,100239.09
2022-07-26T01:00:28.185Z,100243.28
2022-07-26T01:03:36.471Z,100247.78
2022-07-26T01:06:42.188Z,100252.09
2022-07-26T01:09:44.524Z,100253.69
2022-07-26T01:12:47.069Z,100253.91
2022-07-26T01:15:48.895Z,100255.38
2022-07-26T01:18:50.348Z,100250.31
2022-07-26T01:21:51.905Z,100249.16
2022-07-26T01:24:53.384Z,100258.13
2022-07-26T01:27:54.897Z,100247.75
2022-07-26T01:30:56.606Z,100248.78
2022-07-26T01:33:58.231Z,100251.22
2022-07-26T01:36:59.905Z,100246.13
2022-07-26T01:40:01.693Z,100246.16
2022-07-26T01:43:03.166Z,100241.50
2022-07-26T01:46:07.185Z,100247.03
2022-07-26T01:49:09.284Z,100250.53
2022-07-26T01:52:10.863Z,100247.56
2022-07-26T01:55:12.306Z,100253.28
2022-07-26T01:58:13.939Z,100249.88
2022-07-26T02:01:15.856Z,100248.44
2022-07-26T02:04:56.005Z,100249.44
2022-07-26T02:07:57.572Z,100254.44
2022-07-26T02:11:03.588Z,100258.69
2022-07-26T02:14:05.781Z,100252.75
2022-07-26T02:17:07.556Z,100255.59
2022-07-26T02:20:09.581Z,100262.66
2022-07-26T02:23:12.028Z,100261.22
2022-07-26T02:26:13.514Z,100258.94
2022-07-26T02:29:14.949Z,100264.63
2022-07-26T02:32:16.829Z,100265.19
2022-07-26T02:35:18.401Z,100269.09
2022-07-26T02:38:19.925Z,100263.41
2022-07-26T02:41:21.397Z,100264.03
2022-07-26T02:44:23.968Z,100268.25
2022-07-26T02:47:25.598Z,100271.78
2022-07-26T02:50:28.288Z,100278.41
2022-07-26T02:53:29.721Z,100281.97
2022-07-26T02:56:31.151Z,100276.28
2022-07-26T02:59:32.598Z,100277.97
2022-07-26T03:02:34.064Z,100278.41
2022-07-26T03:05:35.504Z,100276.50
2022-07-26T03:08:37.018Z,100271.66
2022-07-26T03:11:38.571Z,100269.72
2022-07-26T03:14:40.404Z,100273.34
2022-07-26T03:17:41.883Z,100269.84
2022-07-26T03:20:43.489Z,100269.72
2022-07-26T03:23:44.912Z,100272.88
2022-07-26T03:26:46.329Z,100280.81
2022-07-26T03:29:47.800Z,100265.22
2022-07-26T03:32:49.560Z,100276.91
2022-07-26T03:35:50.990Z,100281.13
2022-07-26T03:38:52.399Z,100274.72
2022-07-26T03:41:53.809Z,100279.56
2022-07-26T03:44:55.273Z,100278.63
2022-07-26T03:47:56.692Z,100273.72
2022-07-26T03:50:58.280Z,100287.09
2022-07-26T03:54:00.428Z,100288.25
2022-07-26T03:57:01.984Z,100284.06
2022-07-26T04:00:03.888Z,100286.34
2022-07-26T04:03:08.981Z,100289.47
2022-07-26T04:06:10.854Z,100287.38
2022-07-26T04:09:13.491Z,100294.84
2022-07-26T04:12:14.913Z,100290.31
2022-07-26T04:15:18.774Z,100290.94
2022-07-26T04:18:20.453Z,100294.47
2022-07-26T04:21:22.454Z,100299.34
2022-07-26T04:24:25.350Z,100299.88
2022-07-26T04:27:27.618Z,100302.69
2022-07-26T04:30:29.554Z,100303.03
2022-07-26T04:33:31.078Z,100312.06
2022-07-26T04:36:32.871Z,100313.31
2022-07-26T04:39:34.311Z,100316.00
2022-07-26T04:42:36.575Z,100321.25
2022-07-26T04:45:38.070Z,100324.63
2022-07-26T04:48:39.647Z,100322.72
2022-07-26T04:51:41.177Z,100323.00
2022-07-26T04:54:42.662Z,100338.59
2022-07-26T04:57:45.362Z,100330.97
2022-07-26T05:04:10.789Z,100337.81
2022-07-26T05:07:12.564Z,100336.03
2022-07-26T05:10:16.020Z,100342.97
2022-07-26T05:13:17.557Z,100347.66
2022-07-26T05:16:31.388Z,100347.06
2022-07-26T05:19:33.394Z,100355.47
2022-07-26T05:22:35.984Z,100350.50
2022-07-26T05:25:38.650Z,100349.66
2022-07-26T05:28:40.490Z,100356.75
2022-07-26T05:31:42.496Z,100356.63
2022-07-26T05:34:43.953Z,100360.41
2022-07-26T05:37:45.440Z,100352.66
2022-07-26T05:40:50.463Z,100357.59
2022-07-26T05:43:52.619Z,100368.94
2022-07-26T05:46:54.074Z,100361.78
2022-07-26T05:49:55.517Z,100365.91
2022-07-26T05:52:56.916Z,100379.28
2022-07-26T05:55:58.365Z,100374.38
2022-07-26T05:58:59.815Z,100370.31
2022-07-26T06:02:01.333Z,100369.25
2022-07-26T06:05:02.936Z,100382.94
2022-07-26T06:08:04.682Z,100380.47
2022-07-26T06:11:06.356Z,100381.06
2022-07-26T06:14:07.918Z,100383.56
2022-07-26T06:17:09.630Z,100382.19
2022-07-26T06:20:11.410Z,100378.44
2022-07-26T06:23:13.396Z,100381.91
2022-07-26T06:26:14.950Z,100383.34
2022-07-26T06:29:16.371Z,100386.78
2022-07-26T06:32:17.980Z,100390.28
2022-07-26T06:35:19.966Z,100398.84
2022-07-26T06:38:21.715Z,100393.19
2022-07-26T06:41:23.251Z,100396.47
2022-07-26T06:44:24.694Z,100395.28
2022-07-26T06:47:27.134Z,100386.38
2022-07-26T06:50:28.764Z,100383.22
2022-07-26T06:53:30.367Z,100389.59
2022-07-26T06:56:32.448Z,100382.66
2022-07-26T06:59:34.113Z,100393.91
2022-07-26T07:02:36.141Z,100396.09
2022-07-26T07:05:37.544Z,100395.16
2022-07-26T07:08:39.513Z,100394.97
2022-07-26T07:11:44.375Z,100398.34
2022-07-26T07:14:46.538Z,100406.88
2022-07-26T07:17:48.596Z,100399.06
2022-07-26T07:20:50.106Z,100406.41
2022-07-26T07:23:51.561Z,100401.25
2022-07-26T07:26:53.520Z,100406.16
2022-07-26T07:29:56.721Z,100408.28
2022-07-26T07:32:59.119Z,100398.34
2022-07-26T07:36:00.559Z,100409.72
2022-07-26T07:39:06.356Z,100411.75
2022-07-26T07:42:09.202Z,100409.66
2022-07-26T07:45:11.586Z,100407.47
2022-07-26T07:48:13.022Z,100405.72
2022-07-26T07:51:14.968Z,100408.59
2022-07-26T07:54:18.311Z,100392.53
2022-07-26T07:57:20.228Z,100391.88
2022-07-26T08:00:27.046Z,100390.09
2022-07-26T08:03:38.616Z,100400.00
2022-07-26T08:06:41.748Z,100395.16
2022-07-26T08:09:51.901Z,100397.53
2022-07-26T08:12:53.325Z,100391.81
2022-07-26T08:15:55.826Z,100396.03
2022-07-26T08:18:58.592Z,100398.53
2022-07-26T08:22:00.247Z,100405.41
2022-07-26T08:25:02.877Z,100407.69
2022-07-26T08:28:04.518Z,100410.41
2022-07-26T08:31:06.316Z,100408.94
2022-07-26T08:34:07.790Z,100406.25
2022-07-26T08:37:17.834Z,100404.44
2022-07-26T08:40:19.708Z,100411.84
2022-07-26T08:43:21.134Z,100409.59
2022-07-26T08:46:28.226Z,100417.41
2022-07-26T08:49:29.909Z,100415.88
2022-07-26T08:52:31.439Z,100410.16
2022-07-26T08:55:50.585Z,100413.84
2022-07-26T08:58:54.442Z,100411.16
2022-07-26T09:02:01.850Z,100417.28
2022-07-26T09:05:04.771Z,100422.97
2022-07-26T09:08:27.766Z,100414.91
2022-07-26T09:11:33.504Z,100415.56
2022-07-26T09:14:39.384Z,100422.09
2022-07-26T09:17:44.039Z,100422.81
2022-07-26T09:20:47.176Z,100423.53
2022-07-26T09:23:49.597Z,100420.69
2022-07-26T09:26:59.814Z,100419.84
2022-07-26T09:30:07.094Z,100418.69
2022-07-26T09:33:08.525Z,100419.84
2022-07-26T09:36:10.122Z,100413.69
2022-07-26T09:39:11.841Z,100413.25
2022-07-26T09:42:29.876Z,100422.69
2022-07-26T09:45:34.122Z,100421.25
2022-07-26T09:49:09.880Z,100415.56
2022-07-26T09:51:59.307Z,100420.41
2022-07-26T09:55:05.623Z,100415.31
2022-07-26T09:58:07.459Z,100424.94
2022-07-26T10:01:08.864Z,100428.78
2022-07-26T10:04:11.453Z,100430.34
2022-07-26T10:07:13.356Z,100429.66
2022-07-26T10:10:21.013Z,100423.81
2022-07-26T10:13:22.808Z,100422.78
2022-07-26T10:16:30.456Z,100429.47
2022-07-26T10:19:45.547Z,100433.13
2022-07-26T10:22:50.229Z,100431.56
2022-07-26T10:25:51.759Z,100433.44
2022-07-26T10:28:53.260Z,100432.56
2022-07-26T10:32:00.818Z,100436.25
2022-07-26T10:35:29.722Z,100434.00
2022-07-26T10:38:31.186Z,100433.88
2022-07-26T10:41:40.185Z,100439.97
2022-07-26T10:44:44.849Z,100434.56
2022-07-26T10:48:12.236Z,100442.19
2022-07-26T10:51:25.542Z,100435.69
2022-07-26T10:54:26.966Z,100437.00
2022-07-26T10:57:37.749Z,100430.72
2022-07-26T11:00:39.303Z,100429.41
2022-07-26T11:03:43.200Z,100431.03
2022-07-26T11:06:45.580Z,100429.88
2022-07-26T11:09:46.999Z,100425.00
2022-07-26T11:12:48.417Z,100425.59
2022-07-26T11:15:59.292Z,100424.50
2022-07-26T11:19:21.766Z,100416.31
2022-07-26T11:22:31.755Z,100417.03
2022-07-26T11:25:33.233Z,100416.84
2022-07-26T11:28:53.453Z,100414.28
2022-07-26T11:32:00.108Z,100420.72
2022-07-26T11:35:06.706Z,100408.31
2022-07-26T11:38:12.197Z,100405.75
2022-07-26T11:41:18.080Z,100408.81
2022-07-26T11:44:21.674Z,100416.19
2022-07-26T11:47:25.231Z,100417.31
2022-07-26T11:50:27.928Z,100408.00
2022-07-26T11:53:29.366Z,100405.63
2022-07-26T11:56:32.359Z,100394.75
2022-07-26T11:59:36.358Z,100395.59
2022-07-26T12:02:37.983Z,100392.09
2022-07-26T12:05:41.905Z,100377.69
2022-07-26T12:08:56.334Z,100392.19
2022-07-26T12:11:58.097Z,100398.50
2022-07-26T12:15:01.971Z,100394.53
2022-07-26T12:18:03.445Z,100394.28
2022-07-26T12:21:09.303Z,100392.59
2022-07-26T12:24:13.487Z,100383.81
2022-07-26T12:27:19.561Z,100382.75
2022-07-26T12:30:21.111Z,100380.94
2022-07-26T12:33:22.631Z,100371.41
2022-07-26T12:36:27.713Z,100378.81
2022-07-26T12:39:30.080Z,100369.59
2022-07-26T12:42:36.749Z,100370.28
2022-07-26T12:45:38.470Z,100376.75
2022-07-26T12:48:41.634Z,100371.97
2022-07-26T12:51:43.158Z,100380.50
2022-07-26T12:54:46.755Z,100367.91
2022-07-26T12:57:49.443Z,100360.13
2022-07-26T13:00:57.241Z,100358.13
2022-07-26T13:04:00.763Z,100357.00
2022-07-26T13:07:02.933Z,100353.25
2022-07-26T13:10:31.721Z,100361.09
2022-07-26T13:13:30.892Z,100356.50
2022-07-26T13:16:32.340Z,100353.56
2022-07-26T13:19:35.205Z,100361.13
2022-07-26T13:22:36.685Z,100353.88
2022-07-26T13:25:40.389Z,100361.34
2022-07-26T13:28:42.146Z,100355.69
2022-07-26T13:31:43.927Z,100359.03
2022-07-26T13:34:45.530Z,100358.50
2022-07-26T13:37:46.929Z,100356.97
2022-07-26T13:40:50.329Z,100359.72
2022-07-26T13:43:54.012Z,100357.25
2022-07-26T13:46:55.413Z,100357.25
2022-07-26T13:49:56.817Z,100357.72
2022-07-26T13:52:58.331Z,100352.94
2022-07-26T13:55:59.766Z,100354.41
2022-07-26T13:59:01.185Z,100357.63
2022-07-26T14:02:04.570Z,100358.41
2022-07-26T14:05:06.479Z,100350.28
2022-07-26T14:08:07.915Z,100344.88
2022-07-26T14:11:09.417Z,100347.38
2022-07-26T14:14:13.174Z,100357.09
2022-07-26T14:17:14.890Z,100352.69
2022-07-26T14:20:17.143Z,100354.09
2022-07-26T14:23:18.785Z,100353.53
2022-07-26T14:26:20.231Z,100353.22
2022-07-26T14:29:21.641Z,100348.06
2022-07-26T14:32:23.249Z,100349.00
2022-07-26T14:35:25.571Z,100344.34
2022-07-26T14:38:30.116Z,100351.38
2022-07-26T14:41:31.805Z,100355.56
2022-07-26T14:44:34.179Z,100356.22
2022-07-26T14:47:46.134Z,100350.81
2022-07-26T14:51:08.752Z,100349.91
2022-07-26T14:54:09.885Z,100347.06
2022-07-26T14:57:11.538Z,100351.00
2022-07-26T15:00:15.967Z,100343.72
2022-07-26T15:03:17.499Z,100341.00
2022-07-26T15:06:18.923Z,100338.06
2022-07-26T15:09:20.366Z,100341.88
2022-07-26T15:12:21.837Z,100338.69
2022-07-26T15:15:23.621Z,100337.97
2022-07-26T15:18:25.230Z,100334.13
2022-07-26T15:21:26.701Z,100331.38
2022-07-26T15:24:28.734Z,100331.97
2022-07-26T15:27:30.321Z,100319.75
2022-07-26T15:30:32.944Z,100322.16
2022-07-26T15:33:35.269Z,100317.81
2022-07-26T15:36:36.845Z,100323.34
2022-07-26T15:39:38.309Z,100320.03
2022-07-26T15:42:42.496Z,100316.69
2022-07-26T15:45:45.623Z,100315.69
2022-07-26T15:48:47.304Z,100308.22
2022-07-26T15:51:49.828Z,100308.25
2022-07-26T15:54:52.751Z,100311.75
2022-07-26T15:57:54.186Z,100300.28
2022-07-26T16:00:56.529Z,100310.25
2022-07-26T16:03:57.962Z,100295.31
2022-07-26T16:06:59.387Z,100306.53
2022-07-26T16:10:01.572Z,100307.34
2022-07-26T16:13:03.693Z,100294.94
2022-07-26T16:16:05.741Z,100304.09
2022-07-26T16:19:07.388Z,100287.69
2022-07-26T16:22:08.970Z,100292.84
2022-07-26T16:25:13.508Z,100299.16
2022-07-26T16:28:15.011Z,100293.25
2022-07-26T16:31:16.797Z,100290.19
2022-07-26T16:34:18.385Z,100289.84
2022-07-26T16:37:19.844Z,100290.75
2022-07-26T16:40:21.503Z,100285.50
2022-07-26T16:43:23.106Z,100284.84
2022-07-26T16:46:24.838Z,100278.72
2022-07-26T16:49:26.612Z,100281.91
2022-07-26T16:52:28.263Z,100279.53
2022-07-26T16:55:30.340Z,100279.16
2022-07-26T16:58:32.954Z,100275.78
2022-07-26T17:01:34.464Z,100282.19
2022-07-26T17:04:37.297Z,100277.47
2022-07-26T17:07:38.756Z,100277.66
2022-07-26T17:10:40.190Z,100272.25
2022-07-26T17:13:41.692Z,100281.56
2022-07-26T17:16:43.871Z,100280.22
2022-07-26T17:19:45.435Z,100281.72
2022-07-26T17:22:46.902Z,100276.13
2022-07-26T17:25:48.309Z,100270.03
2022-07-26T17:28:49.813Z,100261.75
2022-07-26T17:31:51.237Z,100260.13
2022-07-26T17:34:52.710Z,100259.00
2022-07-26T17:37:55.972Z,100258.63
2022-07-26T17:40:57.901Z,100267.19
2022-07-26T17:44:02.762Z,100260.75
2022-07-26T17:47:05.431Z,100267.88
2022-07-26T17:50:36.511Z,100261.25
2022-07-26T17:53:38.693Z,100260.06
2022-07-26T17:56:40.096Z,100264.25
2022-07-26T17:59:41.505Z,100270.59
2022-07-26T18:02:43.086Z,100264.44
2022-07-26T18:05:44.666Z,100269.75
2022-07-26T18:08:46.113Z,100268.84
2022-07-26T18:11:47.541Z,100264.53
2022-07-26T18:14:48.962Z,100264.81
2022-07-26T18:17:50.370Z,100260.69
2022-07-26T18:20:52.505Z,100259.44
2022-07-26T18:24:15.430Z,100252.91
2022-07-26T18:27:16.001Z,100258.31
2022-07-26T18:30:17.496Z,100264.81
2022-07-26T18:33:18.921Z,100264.19
2022-07-26T18:36:20.322Z,100252.75
2022-07-26T18:39:21.722Z,100257.13
2022-07-26T18:42:23.173Z,100261.00
2022-07-26T18:45:24.866Z,100268.13
2022-07-26T18:48:26.293Z,100260.25
2022-07-26T18:51:29.670Z,100259.19
2022-07-26T18:54:33.188Z,100267.75
2022-07-26T18:57:36.036Z,100268.06
2022-07-26T19:00:37.595Z,100270.09
2022-07-26T19:03:39.049Z,100273.47
2022-07-26T19:06:40.516Z,100277.41
2022-07-26T19:09:42.111Z,100275.06
2022-07-26T19:12:46.330Z,100284.22
2022-07-26T19:15:49.982Z,100283.16
2022-07-26T19:18:56.880Z,100287.47
2022-07-26T19:21:58.869Z,100291.63
2022-07-26T19:25:00.729Z,100292.94
2022-07-26T19:28:02.198Z,100298.97
2022-07-26T19:31:03.905Z,100308.09
2022-07-26T19:34:05.562Z,100295.97
2022-07-26T19:37:07.274Z,100303.63
2022-07-26T19:40:09.271Z,100307.34
2022-07-26T19:43:11.003Z,100312.78
2022-07-26T19:46:12.518Z,100316.78
2022-07-26T19:49:16.076Z,100321.34
2022-07-26T19:52:17.829Z,100321.66
2022-07-26T19:55:19.390Z,100324.34
2022-07-26T19:58:20.829Z,100332.00
2022-07-26T20:01:29.087Z,100332.28
2022-07-26T20:04:30.774Z,100334.69
2022-07-26T20:07:32.322Z,100333.69
2022-07-26T20:10:33.813Z,100338.38
2022-07-26T20:13:35.401Z,100334.72
2022-07-26T20:16:37.024Z,100333.44
2022-07-26T20:19:38.661Z,100353.16
2022-07-26T20:22:40.499Z,100349.19
2022-07-26T20:25:42.112Z,100344.63
2022-07-26T20:28:43.570Z,100348.41
2022-07-26T20:31:45.061Z,100348.66
2022-07-26T20:34:46.600Z,100354.03
2022-07-26T20:37:48.000Z,100354.75
2022-07-26T20:40:49.628Z,100356.09
2022-07-26T20:43:51.281Z,100355.13
2022-07-26T20:46:52.741Z,100355.09
2022-07-26T20:49:55.058Z,100363.84
2022-07-26T20:52:59.837Z,100362.22
2022-07-26T20:56:01.443Z,100358.84
2022-07-26T20:59:03.035Z,100353.09
2022-07-26T21:02:04.751Z,100362.63
2022-07-26T21:05:07.004Z,100368.53
2022-07-26T21:08:08.466Z,100369.25
2022-07-26T21:11:09.987Z,100362.09
2022-07-26T21:14:11.642Z,100354.50
2022-07-26T21:17:13.193Z,100353.63
2022-07-26T21:20:14.716Z,100354.75
2022-07-26T21:23:19.038Z,100361.25
2022-07-26T21:26:21.650Z,100361.25
2022-07-26T21:29:23.168Z,100368.47
2022-07-26T21:32:29.613Z,100374.41
2022-07-26T21:35:32.881Z,100374.81
2022-07-26T21:38:34.376Z,100368.25
2022-07-26T21:41:36.213Z,100371.34
2022-07-26T21:44:37.678Z,100377.72
2022-07-26T21:47:39.196Z,100369.06
2022-07-26T21:50:40.810Z,100375.94
2022-07-26T21:53:42.325Z,100379.34
2022-07-26T21:56:43.797Z,100379.53
2022-07-26T21:59:45.254Z,100381.59
2022-07-26T22:02:46.830Z,100382.44
2022-07-26T22:05:48.742Z,100378.19
2022-07-26T22:08:50.319Z,100386.38
2022-07-26T22:11:51.734Z,100388.31
2022-07-26T22:14:53.206Z,100390.50
2022-07-26T22:17:55.044Z,100389.78
2022-07-26T22:20:56.726Z,100392.00
2022-07-26T22:23:58.188Z,100386.16
2022-07-26T22:26:59.646Z,100395.47
2022-07-26T22:30:02.144Z,100397.19
2022-07-26T22:33:07.832Z,100394.63
2022-07-26T22:36:09.724Z,100395.34
2022-07-26T22:39:11.538Z,100395.69
2022-07-26T22:42:15.704Z,100392.56
2022-07-26T22:45:17.729Z,100387.22
2022-07-26T22:48:19.239Z,100399.09
2022-07-26T22:51:20.726Z,100397.47
2022-07-26T22:54:22.193Z,100389.31
2022-07-26T22:57:23.610Z,100396.53
2022-07-26T23:00:25.295Z,100396.78
2022-07-26T23:03:26.800Z,100398.13
2022-07-26T23:06:31.810Z,100400.00
2022-07-26T23:09:34.032Z,100401.47
2022-07-26T23:12:35.811Z,100406.09
2022-07-26T23:15:37.231Z,100399.00
2022-07-26T23:18:38.659Z,100399.47
2022-07-26T23:21:40.208Z,100403.16
2022-07-26T23:24:43.649Z,100400.97
2022-07-26T23:27:45.610Z,100402.91
2022-07-26T23:30:47.052Z,100404.00
2022-07-26T23:33:51.301Z,100404.75
2022-07-26T23:36:55.614Z,100400.25
2022-07-26T23:39:57.029Z,100398.75
2022-07-26T23:42:58.574Z,100395.09
2022-07-26T23:46:00.136Z,100390.25
2022-07-26T23:49:03.399Z,100394.94
2022-07-26T23:52:05.176Z,100397.03
2022-07-26T23:55:07.233Z,100385.09
2022-07-26T23:58:12.046Z,100390.56
